Creswell, Oregon
Current Conditions -  °F | °C
As of 9:54 PM on Saturday 25 Oct 2014 (Local Time) from KEUG Reporting Station
Light Rain Light Rain  
Wind Chill: 51°   Ceiling: 3500
Heat Index: 51°   Visibility: 10mi
Dew Point: 48°   Wind: 10mph
Humidity: 89%   Direction: 190°S
Pressure: 29.95"   Gusts: NA
Location:  43.92°N, 123.02°W
Report Text: KEUG 260454Z 19009KT 10SM -RA FEW027 BKN035 OVC065 11/09 A2995 RMK AO2 RAB0355E31B51 SLP141 P0003 T01060089 $
Loading
Personal Weather Stations






























Interactive Weather Map
Tropical Storm Tracking
New forecast layout! Learn more

10-Day Weather Forecast

Advertisements
Track Severe Weather on mobile